Terminal Aerodrome Forecast
Issued by NWS

Current Version | Previous Version | Text Only | Print | Product List | Glossary On
Versions: 1 2 3 4 5 6 7 8 9 10 11 12 13 14 15 16 17 18 19 20 21
000
FTUS42 KMLB 191400 AAA
TAFSFB
TAF AMD
KSFB 191453Z 1915/2012 25011KT P6SM VCSH BKN025
     FM200000 29008KT P6SM SCT012 BKN020=

USA.gov is the U.S. government's official web portal to all federal, state and local government web resources and services.